sensor_id;sensor_type;location;lat;lon;timestamp;P1;P2;P0
33948;PMS7003;20229;49.856;19.030;2023-02-15T00:00:20;44;34;23
33948;PMS7003;20229;49.856;19.030;2023-02-15T00:05:30;40;33;22
33948;PMS7003;20229;49.856;19.030;2023-02-15T00:10:46;45;34;23
33948;PMS7003;20229;49.856;19.030;2023-02-15T00:15:49;37;30;20
33948;PMS7003;20229;49.856;19.030;2023-02-15T00:21:12;31;27;19
33948;PMS7003;20229;49.856;19.030;2023-02-15T00:26:15;38;31;19
33948;PMS7003;20229;49.856;19.030;2023-02-15T00:31:38;36;30;20
33948;PMS7003;20229;49.856;19.030;2023-02-15T00:36:41;35;27;19
33948;PMS7003;20229;49.856;19.030;2023-02-15T00:42:04;34;28;18
33948;PMS7003;20229;49.856;19.030;2023-02-15T00:47:07;36;29;17
33948;PMS7003;20229;49.856;19.030;2023-02-15T00:52:29;36;29;19
33948;PMS7003;20229;49.856;19.030;2023-02-15T00:57:33;33;29;18
33948;PMS7003;20229;49.856;19.030;2023-02-15T01:02:55;31;25;14
33948;PMS7003;20229;49.856;19.030;2023-02-15T01:07:59;29;24;15
33948;PMS7003;20229;49.856;19.030;2023-02-15T01:13:21;33;26;16
33948;PMS7003;20229;49.856;19.030;2023-02-15T01:18:25;34;28;18
33948;PMS7003;20229;49.856;19.030;2023-02-15T01:23:47;38;29;20
33948;PMS7003;20229;49.856;19.030;2023-02-15T01:28:51;38;29;20
33948;PMS7003;20229;49.856;19.030;2023-02-15T01:34:13;39;31;21
33948;PMS7003;20229;49.856;19.030;2023-02-15T01:39:16;40;31;21
33948;PMS7003;20229;49.856;19.030;2023-02-15T01:50:07;41;31;22
33948;PMS7003;20229;49.856;19.030;2023-02-15T01:55:11;38;30;20
33948;PMS7003;20229;49.856;19.030;2023-02-15T02:00:15;42;33;22
33948;PMS7003;20229;49.856;19.030;2023-02-15T02:05:31;39;30;21
33948;PMS7003;20229;49.856;19.030;2023-02-15T02:10:35;41;32;22
33948;PMS7003;20229;49.856;19.030;2023-02-15T02:16:02;31;25;10
33948;PMS7003;20229;49.856;19.030;2023-02-15T02:21:21;25;18;7
33948;PMS7003;20229;49.856;19.030;2023-02-15T02:42:21;49;37;25
33948;PMS7003;20229;49.856;19.030;2023-02-15T02:47:32;52;41;27
33948;PMS7003;20229;49.856;19.030;2023-02-15T02:52:47;56;42;28
33948;PMS7003;20229;49.856;19.030;2023-02-15T03:03:10;48;38;26
33948;PMS7003;20229;49.856;19.030;2023-02-15T03:08:17;40;32;23
33948;PMS7003;20229;49.856;19.030;2023-02-15T03:13:27;42;33;24
33948;PMS7003;20229;49.856;19.030;2023-02-15T03:18:35;40;32;22
33948;PMS7003;20229;49.856;19.030;2023-02-15T03:23:43;35;28;19
33948;PMS7003;20229;49.856;19.030;2023-02-15T03:29:00;30;25;17
33948;PMS7003;20229;49.856;19.030;2023-02-15T03:34:07;30;27;20
33948;PMS7003;20229;49.856;19.030;2023-02-15T03:39:33;32;26;19
33948;PMS7003;20229;49.856;19.030;2023-02-15T03:44:47;38;31;23
33948;PMS7003;20229;49.856;19.030;2023-02-15T03:50:03;14;10;4
33948;PMS7003;20229;49.856;19.030;2023-02-15T03:55:27;27;23;15
33948;PMS7003;20229;49.856;19.030;2023-02-15T04:00:31;29;25;17
33948;PMS7003;20229;49.856;19.030;2023-02-15T04:05:52;13;8;3
33948;PMS7003;20229;49.856;19.030;2023-02-15T04:10:55;20;14;7
33948;PMS7003;20229;49.856;19.030;2023-02-15T04:15:58;23;21;14
33948;PMS7003;20229;49.856;19.030;2023-02-15T04:21:10;35;27;18
33948;PMS7003;20229;49.856;19.030;2023-02-15T04:26:25;34;27;19
33948;PMS7003;20229;49.856;19.030;2023-02-15T04:31:36;33;26;17
33948;PMS7003;20229;49.856;19.030;2023-02-15T04:36:39;33;27;19
33948;PMS7003;20229;49.856;19.030;2023-02-15T04:42:02;34;27;18
33948;PMS7003;20229;49.856;19.030;2023-02-15T04:47:05;41;32;22
33948;PMS7003;20229;49.856;19.030;2023-02-15T04:52:28;37;28;19
33948;PMS7003;20229;49.856;19.030;2023-02-15T04:57:31;39;32;22
33948;PMS7003;20229;49.856;19.030;2023-02-15T05:02:54;46;36;25
33948;PMS7003;20229;49.856;19.030;2023-02-15T05:07:58;49;38;25
33948;PMS7003;20229;49.856;19.030;2023-02-15T05:13:20;43;34;24
33948;PMS7003;20229;49.856;19.030;2023-02-15T05:18:23;43;36;25
33948;PMS7003;20229;49.856;19.030;2023-02-15T05:23:46;37;30;21
33948;PMS7003;20229;49.856;19.030;2023-02-15T05:28:50;40;33;25
33948;PMS7003;20229;49.856;19.030;2023-02-15T05:34:12;36;28;20
33948;PMS7003;20229;49.856;19.030;2023-02-15T05:39:16;35;28;19
33948;PMS7003;20229;49.856;19.030;2023-02-15T05:44:38;34;26;17
33948;PMS7003;20229;49.856;19.030;2023-02-15T05:49:41;37;28;19
33948;PMS7003;20229;49.856;19.030;2023-02-15T05:55:05;34;27;17
33948;PMS7003;20229;49.856;19.030;2023-02-15T06:00:09;34;27;17
33948;PMS7003;20229;49.856;19.030;2023-02-15T06:05:30;28;24;16
33948;PMS7003;20229;49.856;19.030;2023-02-15T06:10:33;28;25;14
33948;PMS7003;20229;49.856;19.030;2023-02-15T06:15:56;20;16;6
33948;PMS7003;20229;49.856;19.030;2023-02-15T06:20:59;19;10;2
33948;PMS7003;20229;49.856;19.030;2023-02-15T06:26:22;44;35;25
33948;PMS7003;20229;49.856;19.030;2023-02-15T06:31:25;41;35;25
33948;PMS7003;20229;49.856;19.030;2023-02-15T06:36:48;37;31;23
33948;PMS7003;20229;49.856;19.030;2023-02-15T06:41:51;42;33;23
33948;PMS7003;20229;49.856;19.030;2023-02-15T06:47:14;29;24;20
33948;PMS7003;20229;49.856;19.030;2023-02-15T06:52:17;41;31;22
33948;PMS7003;20229;49.856;19.030;2023-02-15T06:57:40;39;32;22
33948;PMS7003;20229;49.856;19.030;2023-02-15T07:02:44;43;34;24
33948;PMS7003;20229;49.856;19.030;2023-02-15T07:08:06;39;31;21
33948;PMS7003;20229;49.856;19.030;2023-02-15T07:13:09;46;37;27
33948;PMS7003;20229;49.856;19.030;2023-02-15T07:18:32;50;41;30
33948;PMS7003;20229;49.856;19.030;2023-02-15T07:23:36;41;34;26
33948;PMS7003;20229;49.856;19.030;2023-02-15T07:28:58;13;11;5
33948;PMS7003;20229;49.856;19.030;2023-02-15T07:34:02;46;35;25
33948;PMS7003;20229;49.856;19.030;2023-02-15T07:39:24;57;43;28
33948;PMS7003;20229;49.856;19.030;2023-02-15T07:44:27;67;52;38
33948;PMS7003;20229;49.856;19.030;2023-02-15T07:49:50;96;90;80
33948;PMS7003;20229;49.856;19.030;2023-02-15T07:54:54;55;42;29
33948;PMS7003;20229;49.856;19.030;2023-02-15T08:00:17;39;33;21
33948;PMS7003;20229;49.856;19.030;2023-02-15T08:05:28;53;44;28
33948;PMS7003;20229;49.856;19.030;2023-02-15T08:10:42;79;63;50
33948;PMS7003;20229;49.856;19.030;2023-02-15T08:15:58;98;90;74
33948;PMS7003;20229;49.856;19.030;2023-02-15T08:21:09;104;93;79
33948;PMS7003;20229;49.856;19.030;2023-02-15T08:26:12;77;57;40
33948;PMS7003;20229;49.856;19.030;2023-02-15T08:31:36;164;158;145
33948;PMS7003;20229;49.856;19.030;2023-02-15T08:36:40;99;85;72
33948;PMS7003;20229;49.856;19.030;2023-02-15T08:42:01;73;55;37
33948;PMS7003;20229;49.856;19.030;2023-02-15T08:47:04;65;50;34
33948;PMS7003;20229;49.856;19.030;2023-02-15T08:52:27;62;52;36
33948;PMS7003;20229;49.856;19.030;2023-02-15T08:57:36;75;66;52
33948;PMS7003;20229;49.856;19.030;2023-02-15T09:02:53;177;168;157
33948;PMS7003;20229;49.856;19.030;2023-02-15T09:07:57;198;196;185
33948;PMS7003;20229;49.856;19.030;2023-02-15T09:13:20;327;324;312
33948;PMS7003;20229;49.856;19.030;2023-02-15T09:18:24;277;274;261
33948;PMS7003;20229;49.856;19.030;2023-02-15T09:23:48;110;98;85
33948;PMS7003;20229;49.856;19.030;2023-02-15T09:28:54;77;68;55
33948;PMS7003;20229;49.856;19.030;2023-02-15T09:34:21;43;30;16
33948;PMS7003;20229;49.856;19.030;2023-02-15T09:39:29;72;57;44
33948;PMS7003;20229;49.856;19.030;2023-02-15T09:44:50;64;50;35
33948;PMS7003;20229;49.856;19.030;2023-02-15T09:55:21;71;60;46
33948;PMS7003;20229;49.856;19.030;2023-02-15T10:00:38;74;62;46
33948;PMS7003;20229;49.856;19.030;2023-02-15T10:21:57;87;81;71
33948;PMS7003;20229;49.856;19.030;2023-02-15T10:27:13;100;96;83
33948;PMS7003;20229;49.856;19.030;2023-02-15T10:32:25;99;94;82
33948;PMS7003;20229;49.856;19.030;2023-02-15T10:48:59;86;76;63
33948;PMS7003;20229;49.856;19.030;2023-02-15T11:09:12;78;63;50
33948;PMS7003;20229;49.856;19.030;2023-02-15T11:14:23;55;39;27
33948;PMS7003;20229;49.856;19.030;2023-02-15T11:19:44;58;46;31
33948;PMS7003;20229;49.856;19.030;2023-02-15T11:24:55;63;50;34
33948;PMS7003;20229;49.856;19.030;2023-02-15T11:30:09;57;44;28
33948;PMS7003;20229;49.856;19.030;2023-02-15T11:35:19;47;35;18
33948;PMS7003;20229;49.856;19.030;2023-02-15T11:40:31;51;39;23
33948;PMS7003;20229;49.856;19.030;2023-02-15T11:45:39;50;37;23
33948;PMS7003;20229;49.856;19.030;2023-02-15T11:50:45;58;43;27
33948;PMS7003;20229;49.856;19.030;2023-02-15T11:55:48;46;38;23
33948;PMS7003;20229;49.856;19.030;2023-02-15T12:01:00;53;41;27
33948;PMS7003;20229;49.856;19.030;2023-02-15T12:06:28;67;56;42
33948;PMS7003;20229;49.856;19.030;2023-02-15T12:11:32;85;78;64
33948;PMS7003;20229;49.856;19.030;2023-02-15T12:16:42;87;79;65
33948;PMS7003;20229;49.856;19.030;2023-02-15T12:21:50;76;66;55
33948;PMS7003;20229;49.856;19.030;2023-02-15T12:27:04;89;79;65
33948;PMS7003;20229;49.856;19.030;2023-02-15T12:32:09;78;69;57
33948;PMS7003;20229;49.856;19.030;2023-02-15T12:37:21;82;72;59
33948;PMS7003;20229;49.856;19.030;2023-02-15T12:42:40;85;74;60
33948;PMS7003;20229;49.856;19.030;2023-02-15T12:47:43;79;71;59
33948;PMS7003;20229;49.856;19.030;2023-02-15T12:52:47;69;54;42
33948;PMS7003;20229;49.856;19.030;2023-02-15T12:58:04;63;51;38
33948;PMS7003;20229;49.856;19.030;2023-02-15T13:03:14;65;53;38
33948;PMS7003;20229;49.856;19.030;2023-02-15T13:08:21;66;51;36
33948;PMS7003;20229;49.856;19.030;2023-02-15T13:13:31;69;50;38
33948;PMS7003;20229;49.856;19.030;2023-02-15T13:23:51;64;50;36
33948;PMS7003;20229;49.856;19.030;2023-02-15T13:29:24;60;49;34
33948;PMS7003;20229;49.856;19.030;2023-02-15T13:39:35;65;51;36
33948;PMS7003;20229;49.856;19.030;2023-02-15T13:55:31;63;49;34
33948;PMS7003;20229;49.856;19.030;2023-02-15T14:00:39;65;51;35
33948;PMS7003;20229;49.856;19.030;2023-02-15T14:05:50;62;46;34
33948;PMS7003;20229;49.856;19.030;2023-02-15T14:16:25;68;50;34
33948;PMS7003;20229;49.856;19.030;2023-02-15T14:21:39;68;50;35
33948;PMS7003;20229;49.856;19.030;2023-02-15T14:32:10;65;49;36
33948;PMS7003;20229;49.856;19.030;2023-02-15T14:37:19;64;49;35
33948;PMS7003;20229;49.856;19.030;2023-02-15T14:42:30;61;48;33
33948;PMS7003;20229;49.856;19.030;2023-02-15T14:47:44;74;63;47
33948;PMS7003;20229;49.856;19.030;2023-02-15T14:58:12;65;50;42
33948;PMS7003;20229;49.856;19.030;2023-02-15T15:03:21;73;63;51
33948;PMS7003;20229;49.856;19.030;2023-02-15T15:13:39;63;48;35
33948;PMS7003;20229;49.856;19.030;2023-02-15T15:18:55;46;35;22
33948;PMS7003;20229;49.856;19.030;2023-02-15T15:24:00;45;34;24
33948;PMS7003;20229;49.856;19.030;2023-02-15T15:29:03;54;43;27
33948;PMS7003;20229;49.856;19.030;2023-02-15T15:44:49;42;31;19
33948;PMS7003;20229;49.856;19.030;2023-02-15T15:49:57;53;41;28
33948;PMS7003;20229;49.856;19.030;2023-02-15T15:55:03;55;42;27
33948;PMS7003;20229;49.856;19.030;2023-02-15T16:05:35;65;53;37
33948;PMS7003;20229;49.856;19.030;2023-02-15T16:10:43;62;46;33
33948;PMS7003;20229;49.856;19.030;2023-02-15T16:15:47;70;55;40
33948;PMS7003;20229;49.856;19.030;2023-02-15T16:21:13;71;55;41
33948;PMS7003;20229;49.856;19.030;2023-02-15T16:31:38;73;56;44
33948;PMS7003;20229;49.856;19.030;2023-02-15T16:36:41;79;65;51
33948;PMS7003;20229;49.856;19.030;2023-02-15T16:42:01;84;71;57
33948;PMS7003;20229;49.856;19.030;2023-02-15T16:47:13;74;62;46
33948;PMS7003;20229;49.856;19.030;2023-02-15T16:52:27;72;57;43
33948;PMS7003;20229;49.856;19.030;2023-02-15T16:57:35;72;57;43
33948;PMS7003;20229;49.856;19.030;2023-02-15T17:02:55;67;53;37
33948;PMS7003;20229;49.856;19.030;2023-02-15T17:13:21;114;102;82
33948;PMS7003;20229;49.856;19.030;2023-02-15T17:18:24;128;120;100
33948;PMS7003;20229;49.856;19.030;2023-02-15T17:23:50;128;117;104
33948;PMS7003;20229;49.856;19.030;2023-02-15T17:28:56;133;130;113
33948;PMS7003;20229;49.856;19.030;2023-02-15T17:39:33;110;103;85
33948;PMS7003;20229;49.856;19.030;2023-02-15T17:44:43;82;71;52
33948;PMS7003;20229;49.856;19.030;2023-02-15T17:49:47;78;65;46
33948;PMS7003;20229;49.856;19.030;2023-02-15T17:55:14;75;59;42
33948;PMS7003;20229;49.856;19.030;2023-02-15T18:00:31;80;64;45
33948;PMS7003;20229;49.856;19.030;2023-02-15T18:05:51;72;55;35
33948;PMS7003;20229;49.856;19.030;2023-02-15T18:11:07;78;63;43
33948;PMS7003;20229;49.856;19.030;2023-02-15T18:16:24;68;52;35
33948;PMS7003;20229;49.856;19.030;2023-02-15T18:21:30;81;64;42
33948;PMS7003;20229;49.856;19.030;2023-02-15T18:26:34;73;57;39
33948;PMS7003;20229;49.856;19.030;2023-02-15T18:31:37;78;61;39
33948;PMS7003;20229;49.856;19.030;2023-02-15T18:36:54;74;57;36
33948;PMS7003;20229;49.856;19.030;2023-02-15T18:41:59;70;51;33
33948;PMS7003;20229;49.856;19.030;2023-02-15T18:47:20;68;52;34
33948;PMS7003;20229;49.856;19.030;2023-02-15T18:52:25;72;55;37
33948;PMS7003;20229;49.856;19.030;2023-02-15T18:57:46;71;54;35
33948;PMS7003;20229;49.856;19.030;2023-02-15T19:02:52;70;53;35
33948;PMS7003;20229;49.856;19.030;2023-02-15T19:08:16;70;52;32
33948;PMS7003;20229;49.856;19.030;2023-02-15T19:13:26;71;52;34
33948;PMS7003;20229;49.856;19.030;2023-02-15T19:18:38;60;44;27
33948;PMS7003;20229;49.856;19.030;2023-02-15T19:23:41;74;58;36
33948;PMS7003;20229;49.856;19.030;2023-02-15T19:29:04;73;54;34
33948;PMS7003;20229;49.856;19.030;2023-02-15T19:34:12;69;51;31
33948;PMS7003;20229;49.856;19.030;2023-02-15T19:39:33;71;50;33
33948;PMS7003;20229;49.856;19.030;2023-02-15T19:44:40;70;51;34
33948;PMS7003;20229;49.856;19.030;2023-02-15T19:49:57;64;47;32
33948;PMS7003;20229;49.856;19.030;2023-02-15T19:55:09;64;46;29
33948;PMS7003;20229;49.856;19.030;2023-02-15T20:00:24;68;52;33
33948;PMS7003;20229;49.856;19.030;2023-02-15T20:05:31;69;52;34
33948;PMS7003;20229;49.856;19.030;2023-02-15T20:10:49;65;49;33
33948;PMS7003;20229;49.856;19.030;2023-02-15T20:15:52;65;49;31
33948;PMS7003;20229;49.856;19.030;2023-02-15T20:21:15;68;52;33
33948;PMS7003;20229;49.856;19.030;2023-02-15T20:26:20;61;47;31
33948;PMS7003;20229;49.856;19.030;2023-02-15T20:31:41;60;45;30
33948;PMS7003;20229;49.856;19.030;2023-02-15T20:36:44;64;46;29
33948;PMS7003;20229;49.856;19.030;2023-02-15T20:42:09;51;38;18
33948;PMS7003;20229;49.856;19.030;2023-02-15T20:47:15;40;29;6
33948;PMS7003;20229;49.856;19.030;2023-02-15T20:52:33;75;58;41
33948;PMS7003;20229;49.856;19.030;2023-02-15T20:57:37;66;51;34
33948;PMS7003;20229;49.856;19.030;2023-02-15T21:03:00;63;46;30
33948;PMS7003;20229;49.856;19.030;2023-02-15T21:08:09;62;46;30
33948;PMS7003;20229;49.856;19.030;2023-02-15T21:13:28;65;48;31
33948;PMS7003;20229;49.856;19.030;2023-02-15T21:18:34;83;74;58
33948;PMS7003;20229;49.856;19.030;2023-02-15T21:23:52;56;43;28
33948;PMS7003;20229;49.856;19.030;2023-02-15T21:28:56;56;43;28
33948;PMS7003;20229;49.856;19.030;2023-02-15T21:34:18;58;44;29
33948;PMS7003;20229;49.856;19.030;2023-02-15T21:39:23;57;41;26
33948;PMS7003;20229;49.856;19.030;2023-02-15T21:44:44;60;47;31
33948;PMS7003;20229;49.856;19.030;2023-02-15T21:49:59;63;47;31
33948;PMS7003;20229;49.856;19.030;2023-02-15T21:55:13;61;47;31
33948;PMS7003;20229;49.856;19.030;2023-02-15T22:00:18;59;45;30
33948;PMS7003;20229;49.856;19.030;2023-02-15T22:05:36;68;50;32
33948;PMS7003;20229;49.856;19.030;2023-02-15T22:10:40;62;45;29
33948;PMS7003;20229;49.856;19.030;2023-02-15T22:16:02;65;49;33
33948;PMS7003;20229;49.856;19.030;2023-02-15T22:21:07;60;45;29
33948;PMS7003;20229;49.856;19.030;2023-02-15T22:26:28;18;16;14
33948;PMS7003;20229;49.856;19.030;2023-02-15T22:31:31;62;45;28
33948;PMS7003;20229;49.856;19.030;2023-02-15T22:36:55;61;46;28
33948;PMS7003;20229;49.856;19.030;2023-02-15T22:41:58;68;51;33
33948;PMS7003;20229;49.856;19.030;2023-02-15T22:47:22;61;43;30
33948;PMS7003;20229;49.856;19.030;2023-02-15T22:52:28;69;54;35
33948;PMS7003;20229;49.856;19.030;2023-02-15T22:57:48;69;53;34
33948;PMS7003;20229;49.856;19.030;2023-02-15T23:02:54;68;52;33
33948;PMS7003;20229;49.856;19.030;2023-02-15T23:08:14;68;53;31
33948;PMS7003;20229;49.856;19.030;2023-02-15T23:18:40;67;48;30
33948;PMS7003;20229;49.856;19.030;2023-02-15T23:23:47;67;53;35
33948;PMS7003;20229;49.856;19.030;2023-02-15T23:29:08;62;47;29
33948;PMS7003;20229;49.856;19.030;2023-02-15T23:34:20;66;50;32
33948;PMS7003;20229;49.856;19.030;2023-02-15T23:39:32;64;49;33
33948;PMS7003;20229;49.856;19.030;2023-02-15T23:44:48;69;52;33
33948;PMS7003;20229;49.856;19.030;2023-02-15T23:49:58;67;51;35
33948;PMS7003;20229;49.856;19.030;2023-02-15T23:55:01;65;49;33
